createdAt,value
2019-04-29T00:00:51.707Z,9.40
2019-04-29T00:03:21.133Z,9.50
2019-04-29T00:05:51.005Z,9.50
2019-04-29T00:08:20.518Z,9.50
2019-04-29T00:10:49.694Z,9.50
2019-04-29T00:13:19.013Z,9.50
2019-04-29T00:16:10.374Z,9.50
2019-04-29T00:19:10.491Z,9.40
2019-04-29T00:21:40.209Z,9.40
2019-04-29T00:24:09.630Z,9.30
2019-04-29T00:26:38.786Z,9.40
2019-04-29T00:29:08.581Z,9.40
2019-04-29T00:31:37.733Z,9.40
2019-04-29T00:34:07.171Z,9.30
2019-04-29T00:36:42.949Z,9.30
2019-04-29T00:39:30.227Z,9.30
2019-04-29T00:42:11.884Z,9.20
2019-04-29T00:44:41.322Z,9.20
2019-04-29T00:47:10.826Z,9.20
2019-04-29T00:49:40.237Z,9.20
2019-04-29T00:52:09.445Z,9.20
2019-04-29T00:54:47.522Z,9.20
2019-04-29T00:57:16.983Z,9.20
2019-04-29T00:59:46.098Z,9.20
2019-04-29T01:02:15.261Z,9.20
2019-04-29T01:04:45.021Z,9.10
2019-04-29T01:07:14.174Z,9.10
2019-04-29T01:09:43.330Z,9.10
2019-04-29T01:12:12.489Z,9.10
2019-04-29T01:14:41.600Z,9.10
2019-04-29T01:17:10.748Z,9.10
2019-04-29T01:19:39.870Z,9.10
2019-04-29T01:22:08.970Z,9.10
2019-04-29T01:24:38.175Z,9.10
2019-04-29T01:27:24.570Z,9.00
2019-04-29T01:29:53.758Z,9.00
2019-04-29T01:32:23.579Z,8.90
2019-04-29T01:34:54.583Z,8.90
2019-04-29T01:37:41.342Z,8.90
2019-04-29T01:40:26.614Z,8.80
2019-04-29T01:42:55.821Z,8.80
2019-04-29T01:45:24.995Z,8.70
2019-04-29T01:47:54.508Z,8.70
2019-04-29T01:50:23.659Z,8.70
2019-04-29T01:52:53.327Z,8.60
2019-04-29T01:55:22.417Z,8.60
2019-04-29T01:57:51.942Z,8.60
2019-04-29T02:00:21.142Z,8.60
2019-04-29T02:09:32.839Z,8.60
2019-04-29T02:12:55.672Z,8.50
2019-04-29T02:19:06.079Z,8.50
2019-04-29T02:25:41.579Z,8.40
2019-04-29T02:31:51.934Z,8.30
2019-04-29T02:35:15.424Z,8.30
2019-04-29T02:41:34.291Z,8.10
2019-04-29T02:47:44.311Z,8.10
2019-04-29T02:53:54.624Z,8.00
2019-04-29T03:00:24.335Z,8.00
2019-04-29T03:03:07.412Z,8.00
2019-04-29T03:05:44.458Z,8.00
2019-04-29T03:08:13.728Z,8.00
2019-04-29T03:10:44.175Z,7.90
2019-04-29T03:13:13.245Z,8.00
2019-04-29T03:15:43.942Z,8.00
2019-04-29T03:21:56.912Z,8.00
2019-04-29T03:28:07.213Z,7.90
2019-04-29T03:34:17.588Z,7.90
2019-04-29T03:40:28.056Z,7.80
2019-04-29T03:46:38.097Z,7.80
2019-04-29T03:52:48.314Z,7.70
2019-04-29T03:56:11.362Z,7.60
2019-04-29T04:02:31.096Z,7.60
2019-04-29T04:05:54.301Z,7.60
2019-04-29T04:12:04.492Z,7.60
2019-04-29T04:14:33.699Z,7.50
2019-04-29T04:17:28.123Z,7.50
2019-04-29T04:19:57.459Z,7.60
2019-04-29T04:22:30.831Z,7.60
2019-04-29T04:25:00.281Z,7.60
2019-04-29T04:27:30.788Z,7.70
2019-04-29T04:30:01.855Z,7.70
2019-04-29T04:32:32.514Z,7.80
2019-04-29T04:35:01.774Z,7.80
2019-04-29T04:37:30.868Z,7.90
2019-04-29T04:40:00.406Z,7.90
2019-04-29T04:42:30.389Z,7.90
2019-04-29T04:44:59.601Z,8.00
2019-04-29T04:47:28.786Z,7.90
2019-04-29T04:49:58.607Z,7.90
2019-04-29T04:52:27.710Z,7.90
2019-04-29T04:54:56.810Z,7.90
2019-04-29T04:57:25.924Z,7.90
2019-04-29T04:59:55.367Z,8.00
2019-04-29T05:02:26.466Z,8.10
2019-04-29T05:04:55.866Z,8.10
2019-04-29T05:07:24.981Z,8.20
2019-04-29T05:09:54.053Z,8.30
2019-04-29T05:12:24.563Z,8.30
2019-04-29T05:14:53.670Z,8.30
2019-04-29T05:17:22.734Z,8.40
2019-04-29T05:19:52.191Z,8.40
2019-04-29T05:22:21.381Z,8.40
2019-04-29T05:24:50.458Z,8.40
2019-04-29T05:27:19.595Z,8.50
2019-04-29T05:29:49.260Z,8.50
2019-04-29T05:32:18.775Z,8.50
2019-04-29T05:34:55.120Z,8.50
2019-04-29T05:37:45.275Z,8.50
2019-04-29T05:40:33.489Z,8.60
2019-04-29T05:43:05.085Z,8.60
2019-04-29T05:45:41.410Z,8.70
2019-04-29T05:48:13.875Z,8.70
2019-04-29T05:50:52.031Z,8.80
2019-04-29T05:53:31.694Z,8.80
2019-04-29T05:56:01.191Z,8.90
2019-04-29T05:58:32.967Z,9.00
2019-04-29T06:01:06.742Z,9.00
2019-04-29T06:03:38.006Z,9.10
2019-04-29T06:06:08.439Z,9.10
2019-04-29T06:08:39.070Z,9.20
2019-04-29T06:11:08.597Z,9.20
2019-04-29T06:13:37.718Z,9.30
2019-04-29T06:16:09.941Z,9.30
2019-04-29T06:18:40.856Z,9.30
2019-04-29T06:21:10.317Z,9.20
2019-04-29T06:23:39.417Z,9.30
2019-04-29T06:26:08.507Z,9.30
2019-04-29T06:28:38.484Z,9.30
2019-04-29T06:31:07.603Z,9.40
2019-04-29T06:33:36.769Z,9.50
2019-04-29T06:36:06.814Z,9.50
2019-04-29T06:38:35.916Z,9.50
2019-04-29T06:41:09.309Z,9.60
2019-04-29T06:43:36.543Z,9.60
2019-04-29T06:46:05.735Z,9.70
2019-04-29T06:48:34.787Z,9.80
2019-04-29T06:51:03.943Z,9.90
2019-04-29T06:53:34.287Z,10.00
2019-04-29T06:56:03.432Z,10.00
2019-04-29T06:58:36.594Z,10.10
2019-04-29T07:01:04.353Z,10.20
2019-04-29T07:03:33.731Z,10.20
2019-04-29T07:06:02.898Z,10.20
2019-04-29T07:08:32.362Z,10.30
2019-04-29T07:11:03.036Z,10.40
2019-04-29T07:13:32.273Z,10.40
2019-04-29T07:16:01.675Z,10.50
2019-04-29T07:18:30.756Z,10.60
2019-04-29T07:21:00.512Z,10.70
2019-04-29T07:23:29.893Z,10.70
2019-04-29T07:25:59.608Z,10.80
2019-04-29T07:28:30.750Z,10.80
2019-04-29T07:31:02.439Z,10.90
2019-04-29T07:33:31.062Z,11.00
2019-04-29T07:36:10.738Z,11.00
2019-04-29T07:38:41.315Z,11.10
2019-04-29T07:41:02.843Z,11.10
2019-04-29T07:43:31.900Z,11.20
2019-04-29T07:46:18.556Z,11.20
2019-04-29T07:49:00.677Z,11.20
2019-04-29T07:51:19.142Z,11.20
2019-04-29T07:53:48.195Z,11.20
2019-04-29T07:56:17.299Z,11.20
2019-04-29T07:58:48.573Z,11.40
2019-04-29T08:01:19.791Z,11.50
2019-04-29T08:03:48.839Z,11.50
2019-04-29T08:06:18.262Z,11.50
2019-04-29T08:08:55.113Z,11.60
2019-04-29T08:11:19.438Z,11.70
2019-04-29T08:13:50.140Z,11.80
2019-04-29T08:16:19.249Z,11.80
2019-04-29T08:18:49.462Z,11.80
2019-04-29T08:21:19.986Z,11.80
2019-04-29T08:23:49.066Z,11.90
2019-04-29T08:26:18.455Z,12.00
2019-04-29T08:28:47.522Z,12.10
2019-04-29T08:31:20.684Z,12.20
2019-04-29T08:33:48.504Z,12.20
2019-04-29T08:36:17.776Z,12.20
2019-04-29T08:38:47.330Z,12.20
2019-04-29T08:41:21.597Z,12.20
2019-04-29T08:44:15.342Z,12.30
2019-04-29T08:46:51.691Z,12.30
2019-04-29T08:49:17.039Z,12.30
2019-04-29T08:51:46.158Z,12.30
2019-04-29T08:54:16.024Z,12.30
2019-04-29T08:57:02.396Z,12.40
2019-04-29T08:59:20.684Z,12.40
2019-04-29T09:01:48.851Z,12.40
2019-04-29T09:04:17.918Z,12.40
2019-04-29T09:06:47.452Z,12.40
2019-04-29T09:09:28.478Z,12.40
2019-04-29T09:11:48.258Z,12.50
2019-04-29T09:14:19.494Z,12.60
2019-04-29T09:16:48.894Z,12.80
2019-04-29T09:19:18.292Z,12.90
2019-04-29T09:21:49.927Z,13.00
2019-04-29T09:24:19.025Z,13.20
2019-04-29T09:26:53.167Z,13.30
2019-04-29T09:29:35.017Z,13.40
2019-04-29T09:32:05.408Z,13.40
2019-04-29T09:34:34.581Z,13.40
2019-04-29T09:37:03.631Z,13.40
2019-04-29T09:39:43.407Z,13.40
2019-04-29T09:42:19.048Z,13.40
2019-04-29T09:45:24.070Z,13.30
2019-04-29T09:47:56.317Z,13.30
2019-04-29T09:50:28.364Z,13.30
2019-04-29T09:53:08.228Z,13.20
2019-04-29T09:55:40.051Z,13.30
2019-04-29T09:58:16.370Z,13.30
2019-04-29T10:01:18.625Z,13.30
2019-04-29T10:04:18.213Z,13.30
2019-04-29T10:06:49.081Z,13.20
2019-04-29T10:09:18.330Z,13.10
2019-04-29T10:11:47.435Z,13.10
2019-04-29T10:14:16.508Z,13.10
2019-04-29T10:17:01.170Z,13.10
2019-04-29T10:19:36.119Z,13.00
2019-04-29T10:22:05.631Z,13.10
2019-04-29T10:24:35.408Z,13.20
2019-04-29T10:27:07.079Z,13.10
2019-04-29T10:29:36.086Z,13.10
2019-04-29T10:32:08.580Z,13.10
2019-04-29T10:34:37.807Z,13.10
2019-04-29T10:37:08.713Z,13.20
2019-04-29T10:39:55.709Z,13.20
2019-04-29T10:42:31.495Z,13.20
2019-04-29T10:45:18.679Z,13.10
2019-04-29T10:48:06.800Z,13.20
2019-04-29T10:50:38.833Z,13.30
2019-04-29T10:53:11.147Z,13.40
2019-04-29T10:55:40.008Z,13.40
2019-04-29T10:58:10.367Z,13.50
2019-04-29T11:01:31.691Z,13.60
2019-04-29T11:04:02.664Z,13.60
2019-04-29T11:06:35.695Z,13.60
2019-04-29T11:09:24.826Z,13.50
2019-04-29T11:11:54.012Z,13.40
2019-04-29T11:14:24.809Z,13.40
2019-04-29T11:16:54.385Z,13.40
2019-04-29T11:19:23.739Z,13.50
2019-04-29T11:21:53.334Z,13.50
2019-04-29T11:24:39.323Z,13.50
2019-04-29T11:27:15.417Z,13.40
2019-04-29T11:29:44.516Z,13.40
2019-04-29T11:32:24.893Z,13.30
2019-04-29T11:35:19.067Z,13.20
2019-04-29T11:37:49.988Z,13.10
2019-04-29T11:40:26.108Z,13.10
2019-04-29T11:42:52.678Z,13.10
2019-04-29T11:45:21.848Z,13.10
2019-04-29T11:47:50.928Z,13.10
2019-04-29T11:50:33.210Z,13.00
2019-04-29T11:53:02.262Z,13.00
2019-04-29T11:55:31.839Z,13.00
2019-04-29T11:58:06.572Z,13.10
2019-04-29T12:00:58.078Z,13.00
2019-04-29T12:03:32.751Z,13.00
2019-04-29T12:06:04.431Z,12.90
2019-04-29T12:08:33.510Z,12.90
2019-04-29T12:11:07.089Z,12.80
2019-04-29T12:13:46.742Z,12.70
2019-04-29T12:16:26.627Z,12.50
2019-04-29T12:19:05.403Z,12.40
2019-04-29T12:21:36.600Z,12.40
2019-04-29T12:24:08.079Z,12.30
2019-04-29T12:26:43.053Z,12.30
2019-04-29T12:29:08.340Z,12.20
2019-04-29T12:31:49.270Z,12.20
2019-04-29T12:34:29.062Z,12.10
2019-04-29T12:36:58.128Z,12.10
2019-04-29T12:39:45.175Z,12.10
2019-04-29T12:42:47.813Z,12.00
2019-04-29T12:45:36.355Z,12.10
2019-04-29T12:48:06.549Z,12.10
2019-04-29T12:50:36.181Z,12.20
2019-04-29T12:53:06.234Z,12.20
2019-04-29T12:55:45.063Z,12.20
2019-04-29T12:58:10.373Z,12.20
2019-04-29T13:00:47.267Z,12.20
2019-04-29T13:03:40.879Z,12.20
2019-04-29T13:06:15.513Z,12.20
2019-04-29T13:08:47.391Z,12.20
2019-04-29T13:11:19.159Z,12.20
2019-04-29T13:13:47.272Z,12.20
2019-04-29T13:16:41.418Z,12.20
2019-04-29T13:19:50.290Z,12.20
2019-04-29T13:22:17.117Z,12.20
2019-04-29T13:24:46.719Z,12.20
2019-04-29T13:27:16.602Z,12.10
2019-04-29T13:29:47.118Z,12.00
2019-04-29T13:32:16.268Z,12.00
2019-04-29T13:34:47.348Z,11.90
2019-04-29T13:37:18.777Z,11.80
2019-04-29T13:39:47.356Z,11.70
2019-04-29T13:42:16.821Z,11.70
2019-04-29T13:45:05.374Z,11.70
2019-04-29T13:47:42.024Z,11.80
2019-04-29T13:50:23.597Z,11.80
2019-04-29T13:52:50.942Z,11.70
2019-04-29T13:55:47.861Z,11.70
2019-04-29T13:58:04.288Z,11.70
2019-04-29T14:00:43.383Z,11.70
2019-04-29T14:03:35.607Z,11.80
2019-04-29T14:06:14.462Z,11.80
2019-04-29T14:08:44.594Z,11.70
2019-04-29T14:11:38.326Z,11.60
2019-04-29T14:14:10.648Z,11.70
2019-04-29T14:16:43.169Z,11.50
2019-04-29T14:19:11.225Z,11.50
2019-04-29T14:21:43.497Z,11.50
2019-04-29T14:24:11.478Z,11.50
2019-04-29T14:26:41.903Z,11.60
2019-04-29T14:29:11.476Z,11.60
2019-04-29T14:31:40.719Z,11.50
2019-04-29T14:34:20.434Z,11.50
2019-04-29T14:36:49.866Z,11.50
2019-04-29T14:39:35.908Z,11.50
2019-04-29T14:41:56.473Z,11.50
2019-04-29T14:44:50.358Z,11.40
2019-04-29T14:47:29.103Z,11.40
2019-04-29T14:50:00.260Z,11.40
2019-04-29T14:52:40.435Z,11.40
2019-04-29T14:55:10.541Z,11.50
2019-04-29T14:57:40.051Z,11.50
2019-04-29T15:00:19.761Z,11.50
2019-04-29T15:02:48.957Z,11.50
2019-04-29T15:05:18.182Z,11.50
2019-04-29T15:07:57.225Z,11.40
2019-04-29T15:10:36.765Z,11.30
2019-04-29T15:13:20.637Z,11.40
2019-04-29T15:16:09.619Z,11.30
2019-04-29T15:18:50.494Z,11.30
2019-04-29T15:21:42.932Z,11.30
2019-04-29T15:24:07.317Z,11.20
2019-04-29T15:26:36.413Z,11.10
2019-04-29T15:29:05.974Z,11.20
2019-04-29T15:31:35.668Z,11.00
2019-04-29T15:34:08.825Z,11.00
2019-04-29T15:36:36.737Z,11.00
2019-04-29T15:39:11.737Z,10.90
2019-04-29T15:41:39.981Z,10.90
2019-04-29T15:44:18.978Z,10.90
2019-04-29T15:46:46.122Z,10.80
2019-04-29T15:49:11.223Z,10.80
2019-04-29T15:51:44.030Z,10.80
2019-04-29T15:54:14.312Z,10.70
2019-04-29T15:56:42.611Z,10.70
2019-04-29T15:59:12.594Z,10.70
2019-04-29T16:01:42.429Z,10.60
2019-04-29T16:04:34.312Z,10.60
2019-04-29T16:07:21.150Z,10.50
2019-04-29T16:10:20.732Z,10.50
2019-04-29T16:12:50.997Z,10.50
2019-04-29T16:15:21.349Z,10.40
2019-04-29T16:17:50.463Z,10.30
2019-04-29T16:20:19.530Z,10.30
2019-04-29T16:22:48.778Z,10.30
2019-04-29T16:25:17.967Z,10.30
2019-04-29T16:27:53.032Z,10.30
2019-04-29T16:30:19.945Z,10.30
2019-04-29T16:32:50.131Z,10.30
2019-04-29T16:35:23.611Z,10.20
2019-04-29T16:37:50.013Z,10.00
2019-04-29T16:40:19.824Z,10.00
2019-04-29T16:43:18.441Z,10.10
2019-04-29T16:46:07.662Z,10.10
2019-04-29T16:48:38.246Z,10.10
2019-04-29T16:51:13.955Z,10.20
2019-04-29T16:53:48.774Z,10.10
2019-04-29T16:56:18.045Z,10.10
2019-04-29T16:59:08.916Z,10.10
2019-04-29T17:01:34.817Z,10.10
2019-04-29T17:04:11.481Z,10.10
2019-04-29T17:07:09.974Z,10.10
2019-04-29T17:09:47.289Z,10.00
2019-04-29T17:12:29.491Z,10.10
2019-04-29T17:15:23.590Z,10.10
2019-04-29T17:17:41.721Z,10.00
2019-04-29T17:20:12.095Z,10.00
2019-04-29T17:22:43.210Z,10.00
2019-04-29T17:25:21.121Z,9.90
2019-04-29T17:28:12.149Z,9.90
2019-04-29T17:31:18.565Z,9.90
2019-04-29T17:33:58.521Z,9.90
2019-04-29T17:36:28.131Z,9.80
2019-04-29T17:39:10.547Z,9.80
2019-04-29T17:41:42.390Z,9.80
2019-04-29T17:44:33.433Z,9.80
2019-04-29T17:47:27.692Z,9.70
2019-04-29T17:50:28.871Z,9.70
2019-04-29T17:52:48.255Z,9.60
2019-04-29T17:55:38.641Z,9.70
2019-04-29T17:58:27.792Z,9.80
2019-04-29T18:01:12.996Z,9.80
2019-04-29T18:04:16.650Z,9.80
2019-04-29T18:06:49.064Z,9.80
2019-04-29T18:09:38.730Z,9.80
2019-04-29T18:12:15.199Z,9.80
2019-04-29T18:14:50.360Z,9.80
2019-04-29T18:17:26.840Z,9.80
2019-04-29T18:20:32.980Z,9.90
2019-04-29T18:23:11.046Z,9.80
2019-04-29T18:26:10.364Z,9.80
2019-04-29T18:28:40.057Z,9.80
2019-04-29T18:31:11.239Z,9.80
2019-04-29T18:33:41.637Z,9.80
2019-04-29T18:36:21.776Z,9.80
2019-04-29T18:38:47.483Z,9.80
2019-04-29T18:41:24.312Z,9.80
2019-04-29T18:43:47.538Z,9.90
2019-04-29T18:46:19.319Z,9.90
2019-04-29T18:48:49.035Z,9.90
2019-04-29T18:51:25.683Z,9.90
2019-04-29T18:53:55.635Z,9.90
2019-04-29T18:56:32.236Z,9.90
2019-04-29T18:59:00.319Z,9.90
2019-04-29T19:01:31.571Z,9.90
2019-04-29T19:04:16.712Z,9.90
2019-04-29T19:06:43.025Z,9.90
2019-04-29T19:09:18.518Z,9.90
2019-04-29T19:11:46.284Z,9.90
2019-04-29T19:14:15.989Z,9.90
2019-04-29T19:16:45.913Z,9.90
2019-04-29T19:19:15.549Z,9.90
2019-04-29T19:21:45.519Z,9.90
2019-04-29T19:24:16.222Z,9.90
2019-04-29T19:26:45.938Z,9.90
2019-04-29T19:29:15.643Z,9.90
2019-04-29T19:31:49.671Z,10.00
2019-04-29T19:34:18.774Z,10.00
2019-04-29T19:36:50.605Z,10.00
2019-04-29T19:39:21.829Z,10.00
2019-04-29T19:41:57.491Z,10.00
2019-04-29T19:44:33.433Z,10.00
2019-04-29T19:46:59.772Z,10.00
2019-04-29T19:49:29.322Z,10.00
2019-04-29T19:51:58.516Z,10.00
2019-04-29T19:54:28.629Z,10.00
2019-04-29T19:57:03.570Z,10.00
2019-04-29T19:59:30.380Z,10.00
2019-04-29T20:02:05.605Z,9.90
2019-04-29T20:04:52.364Z,9.90
2019-04-29T20:07:21.970Z,10.00
2019-04-29T20:10:00.008Z,10.00
2019-04-29T20:12:25.354Z,10.00
2019-04-29T20:14:59.786Z,10.00
2019-04-29T20:18:00.031Z,10.10
2019-04-29T20:21:08.670Z,10.10
2019-04-29T20:23:36.197Z,10.10
2019-04-29T20:27:19.006Z,10.10
2019-04-29T20:28:35.948Z,10.10
2019-04-29T20:31:17.926Z,10.10
2019-04-29T20:33:36.962Z,10.10
2019-04-29T20:36:06.403Z,10.10
2019-04-29T20:38:38.757Z,10.10
2019-04-29T20:41:08.208Z,10.10
2019-04-29T20:43:37.774Z,10.10
2019-04-29T20:46:07.484Z,10.10
2019-04-29T20:48:37.195Z,10.10
2019-04-29T20:51:13.174Z,10.10
2019-04-29T20:54:03.025Z,10.10
2019-04-29T20:56:35.193Z,10.20
2019-04-29T20:59:09.018Z,10.20
2019-04-29T21:01:43.044Z,10.20
2019-04-29T21:04:12.897Z,10.10
2019-04-29T21:06:57.378Z,10.20
2019-04-29T21:09:16.735Z,10.10
2019-04-29T21:12:04.287Z,10.20
2019-04-29T21:14:38.574Z,10.20
2019-04-29T21:17:10.956Z,10.20
2019-04-29T21:19:41.331Z,10.20
2019-04-29T21:22:37.940Z,10.20
2019-04-29T21:25:07.651Z,10.30
2019-04-29T21:27:48.513Z,10.30
2019-04-29T21:30:19.037Z,10.30
2019-04-29T21:32:55.815Z,10.30
2019-04-29T21:35:54.473Z,10.20
2019-04-29T21:38:48.409Z,10.30
2019-04-29T21:41:50.655Z,10.20
2019-04-29T21:44:17.519Z,10.20
2019-04-29T21:46:46.934Z,10.30
2019-04-29T21:49:16.034Z,10.30
2019-04-29T21:51:46.602Z,10.30
2019-04-29T21:54:16.183Z,10.30
2019-04-29T21:56:47.981Z,10.30
2019-04-29T21:59:18.383Z,10.30
2019-04-29T22:01:48.199Z,10.30
2019-04-29T22:04:17.391Z,10.30
2019-04-29T22:06:47.500Z,10.40
2019-04-29T22:09:18.636Z,10.40
2019-04-29T22:11:47.846Z,10.40
2019-04-29T22:14:16.954Z,10.40
2019-04-29T22:16:49.127Z,10.40
2019-04-29T22:19:17.596Z,10.40
2019-04-29T22:21:46.824Z,10.40
2019-04-29T22:24:16.871Z,10.40
2019-04-29T22:26:47.981Z,10.40
2019-04-29T22:29:17.074Z,10.40
2019-04-29T22:31:46.510Z,10.40
2019-04-29T22:34:19.095Z,10.40
2019-04-29T22:36:48.204Z,10.40
2019-04-29T22:39:17.329Z,10.40
2019-04-29T22:42:02.414Z,10.40
2019-04-29T22:44:31.499Z,10.40
2019-04-29T22:47:00.649Z,10.40
2019-04-29T22:49:30.050Z,10.30
2019-04-29T22:51:59.422Z,10.40
2019-04-29T22:54:28.773Z,10.40
2019-04-29T22:56:58.535Z,10.40
2019-04-29T22:59:28.473Z,10.40
2019-04-29T23:01:57.626Z,10.40
2019-04-29T23:04:38.140Z,10.40
2019-04-29T23:07:13.467Z,10.40
2019-04-29T23:09:51.770Z,10.40
2019-04-29T23:12:27.828Z,10.40
2019-04-29T23:15:06.002Z,10.40
2019-04-29T23:17:35.524Z,10.40
2019-04-29T23:20:25.443Z,10.40
2019-04-29T23:23:18.363Z,10.50
2019-04-29T23:25:55.623Z,10.50
2019-04-29T23:28:26.905Z,10.50
2019-04-29T23:30:57.094Z,10.50
2019-04-29T23:33:27.301Z,10.50
2019-04-29T23:35:56.980Z,10.50
2019-04-29T23:38:30.912Z,10.50
2019-04-29T23:41:11.522Z,10.50
2019-04-29T23:43:40.687Z,10.50
2019-04-29T23:46:10.230Z,10.50
2019-04-29T23:48:39.939Z,10.50
2019-04-29T23:51:09.403Z,10.50
2019-04-29T23:53:38.951Z,10.50
2019-04-29T23:56:20.028Z,10.50
2019-04-29T23:59:18.277Z,10.50
